Caraquet, Canada
Current Conditions -  °F | °C
As of 8:00 PM on Friday 24 Oct 2014 (Local Time) from CZBF Reporting Station
Light Rain Light Rain  
Wind Chill: 41°   Ceiling: 2000
Heat Index: 41°   Visibility: 5mi
Dew Point: 39°   Wind: 3mph
Humidity: 93%   Direction: 360°N
Pressure: 29.68"   Gusts: NA
Location:  47.78°N, 64.95°W
Report Text: CZBF 242300Z 36003KT 320V050 5SM -RA BR OVC020 05/04 A2968 RMK SC8 SLP052
Loading
Personal Weather Stations






























Interactive Weather Map New forecast layout! Learn more

10-Day Weather Forecast

Advertisements
Track Severe Weather on mobile